createdAt,value
2023-04-15T00:01:19.791Z,90.17
2023-04-15T00:03:51.035Z,90.30
2023-04-15T00:06:22.303Z,90.41
2023-04-15T00:08:50.897Z,90.35
2023-04-15T00:11:20.263Z,90.29
2023-04-15T00:13:48.517Z,90.24
2023-04-15T00:16:17.241Z,90.28
2023-04-15T00:18:46.225Z,90.23
2023-04-15T00:21:14.458Z,90.28
2023-04-15T00:23:42.639Z,90.27
2023-04-15T00:26:11.060Z,90.21
2023-04-15T00:28:39.644Z,90.11
2023-04-15T00:31:07.991Z,90.12
2023-04-15T00:33:37.127Z,90.11
2023-04-15T00:36:08.787Z,90.05
2023-04-15T00:38:38.971Z,90.06
2023-04-15T00:41:07.902Z,90.06
2023-04-15T00:43:36.674Z,89.88
2023-04-15T00:46:06.746Z,89.87
2023-04-15T00:48:36.663Z,89.81
2023-04-15T00:51:05.280Z,89.79
2023-04-15T00:53:33.658Z,89.59
2023-04-15T00:56:02.145Z,89.48
2023-04-15T00:58:30.835Z,89.38
2023-04-15T01:01:00.205Z,89.29
2023-04-15T01:03:30.623Z,89.11
2023-04-15T01:06:03.575Z,88.98
2023-04-15T01:08:33.252Z,88.82
2023-04-15T01:11:03.794Z,88.64
2023-04-15T01:13:34.620Z,88.47
2023-04-15T01:16:03.520Z,88.26
2023-04-15T01:18:32.399Z,88.14
2023-04-15T01:21:05.402Z,87.99
2023-04-15T01:23:37.153Z,87.92
2023-04-15T01:26:09.150Z,87.82
2023-04-15T01:28:38.514Z,87.65
2023-04-15T01:31:12.650Z,87.57
2023-04-15T01:33:42.962Z,87.40
2023-04-15T01:36:11.255Z,87.34
2023-04-15T01:38:39.809Z,87.23
2023-04-15T01:41:08.490Z,87.10
2023-04-15T01:43:40.693Z,87.09
2023-04-15T01:46:10.912Z,86.98
2023-04-15T01:48:39.379Z,86.94
2023-04-15T01:51:08.405Z,86.84
2023-04-15T01:53:37.567Z,86.63
2023-04-15T01:56:07.487Z,86.58
2023-04-15T01:58:36.094Z,86.51
2023-04-15T02:01:04.913Z,86.43
2023-04-15T02:03:33.845Z,86.28
2023-04-15T02:06:02.739Z,86.31
2023-04-15T02:08:31.329Z,86.17
2023-04-15T02:11:01.424Z,86.16
2023-04-15T02:13:30.543Z,86.09
2023-04-15T02:15:59.993Z,86.01
2023-04-15T02:18:28.539Z,86.03
2023-04-15T02:20:58.988Z,85.91
2023-04-15T02:23:27.624Z,85.89
2023-04-15T02:25:55.912Z,85.83
2023-04-15T02:28:24.293Z,85.95
2023-04-15T02:30:53.726Z,85.94
2023-04-15T02:33:22.325Z,85.78
2023-04-15T02:35:51.065Z,85.71
2023-04-15T02:38:19.564Z,85.65
2023-04-15T02:40:50.468Z,85.82
2023-04-15T02:43:19.075Z,85.77
2023-04-15T02:45:47.595Z,85.81
2023-04-15T02:48:20.561Z,85.79
2023-04-15T02:50:48.912Z,85.77
2023-04-15T02:53:17.909Z,85.79
2023-04-15T02:55:46.683Z,85.64
2023-04-15T02:58:17.979Z,85.62
2023-04-15T03:00:46.692Z,85.46
2023-04-15T03:03:16.038Z,85.36
2023-04-15T03:05:45.009Z,85.32
2023-04-15T03:08:17.388Z,85.28
2023-04-15T03:10:45.875Z,85.26
2023-04-15T03:13:16.206Z,85.24
2023-04-15T03:15:47.688Z,85.32
2023-04-15T03:21:02.805Z,85.06
2023-04-15T03:23:32.294Z,84.88
2023-04-15T03:26:05.244Z,84.78
2023-04-15T03:28:34.627Z,84.66
2023-04-15T03:31:03.442Z,84.58
2023-04-15T03:33:32.004Z,84.44
2023-04-15T03:36:00.806Z,84.28
2023-04-15T03:38:29.060Z,84.01
2023-04-15T03:40:57.224Z,83.82
2023-04-15T03:43:26.217Z,83.67
2023-04-15T03:45:54.702Z,83.47
2023-04-15T03:48:22.923Z,83.28
2023-04-15T03:50:51.170Z,82.71
2023-04-15T03:53:19.551Z,82.27
2023-04-15T03:55:47.955Z,82.05
2023-04-15T03:58:16.737Z,81.86
2023-04-15T04:00:45.204Z,81.83
2023-04-15T04:03:13.926Z,82.01
2023-04-15T04:05:44.260Z,82.04
2023-04-15T04:08:14.113Z,82.24
2023-04-15T04:10:43.327Z,82.45
2023-04-15T04:13:11.700Z,82.60
2023-04-15T04:15:40.195Z,82.65
2023-04-15T04:18:08.662Z,82.45
2023-04-15T04:20:37.153Z,82.47
2023-04-15T04:23:05.821Z,82.24
2023-04-15T04:25:34.831Z,82.14
2023-04-15T04:28:03.919Z,81.95
2023-04-15T04:30:32.300Z,81.61
2023-04-15T04:33:01.132Z,81.22
2023-04-15T04:35:29.764Z,80.80
2023-04-15T04:37:58.356Z,80.68
2023-04-15T04:40:27.685Z,80.63
2023-04-15T04:42:56.231Z,80.40
2023-04-15T04:45:24.714Z,80.24
2023-04-15T04:47:53.094Z,80.13
2023-04-15T04:50:21.995Z,79.91
2023-04-15T04:52:50.766Z,79.83
2023-04-15T04:55:19.557Z,79.59
2023-04-15T04:57:47.810Z,79.61
2023-04-15T05:00:17.138Z,79.52
2023-04-15T05:02:46.323Z,79.41
2023-04-15T05:05:15.218Z,78.95
2023-04-15T05:07:43.716Z,78.35
2023-04-15T05:10:12.177Z,78.23
2023-04-15T05:12:40.487Z,77.86
2023-04-15T05:15:09.884Z,77.48
2023-04-15T05:17:38.300Z,77.02
2023-04-15T05:20:07.640Z,76.73
2023-04-15T05:22:36.245Z,76.87
2023-04-15T05:25:05.191Z,76.43
2023-04-15T05:27:33.511Z,76.03
2023-04-15T05:30:02.122Z,75.42
2023-04-15T05:32:30.488Z,74.93
2023-04-15T05:34:58.958Z,75.11
2023-04-15T05:37:27.445Z,75.13
2023-04-15T05:39:57.079Z,75.03
2023-04-15T05:42:25.726Z,74.57
2023-04-15T05:44:54.109Z,74.27
2023-04-15T05:47:22.556Z,74.46
2023-04-15T05:49:51.090Z,74.35
2023-04-15T05:52:19.646Z,74.36
2023-04-15T05:54:48.338Z,74.40
2023-04-15T05:57:17.121Z,74.49
2023-04-15T05:59:45.503Z,74.65
2023-04-15T06:02:14.220Z,74.73
2023-04-15T06:04:42.939Z,74.19
2023-04-15T06:07:11.391Z,73.95
2023-04-15T06:09:39.827Z,73.79
2023-04-15T06:12:12.530Z,73.39
2023-04-15T06:14:41.322Z,73.16
2023-04-15T06:17:09.890Z,72.99
2023-04-15T06:19:38.307Z,72.68
2023-04-15T06:22:07.682Z,72.21
2023-04-15T06:24:37.386Z,72.04
2023-04-15T06:27:05.758Z,71.82
2023-04-15T06:29:34.148Z,71.55
2023-04-15T06:32:02.832Z,70.98
2023-04-15T06:34:31.513Z,70.56
2023-04-15T06:37:01.226Z,70.87
2023-04-15T06:39:29.904Z,70.45
2023-04-15T06:41:58.490Z,70.63
2023-04-15T06:44:27.082Z,71.04
2023-04-15T06:46:55.866Z,70.79
2023-04-15T06:49:24.477Z,70.44
2023-04-15T06:51:53.432Z,70.20
2023-04-15T06:54:22.942Z,69.61
2023-04-15T06:56:51.846Z,69.54
2023-04-15T06:59:21.358Z,69.63
2023-04-15T07:01:50.256Z,69.54
2023-04-15T07:04:20.930Z,69.43
2023-04-15T07:06:50.913Z,69.32
2023-04-15T07:09:21.004Z,69.40
2023-04-15T07:11:50.190Z,69.37
2023-04-15T07:14:19.007Z,69.82
2023-04-15T07:16:47.902Z,69.79
2023-04-15T07:19:16.585Z,68.88
2023-04-15T07:21:46.352Z,68.69
2023-04-15T07:24:18.353Z,68.35
2023-04-15T07:26:47.435Z,68.52
2023-04-15T07:29:17.038Z,68.68
2023-04-15T07:31:47.231Z,68.85
2023-04-15T07:34:17.698Z,68.51
2023-04-15T07:36:46.329Z,68.03
2023-04-15T07:39:16.392Z,67.00
2023-04-15T07:41:47.106Z,65.56
2023-04-15T07:44:16.136Z,64.78
2023-04-15T07:46:45.848Z,64.29
2023-04-15T07:49:14.934Z,64.34
2023-04-15T07:51:44.644Z,64.67
2023-04-15T07:54:13.581Z,64.14
2023-04-15T07:56:42.117Z,63.57
2023-04-15T07:59:10.811Z,63.75
2023-04-15T08:01:39.806Z,64.07
2023-04-15T08:04:08.472Z,64.16
2023-04-15T08:06:40.239Z,63.19
2023-04-15T08:09:08.946Z,62.91
2023-04-15T08:11:38.559Z,62.43
2023-04-15T08:14:08.415Z,62.31
2023-04-15T08:16:37.696Z,61.91
2023-04-15T08:19:07.660Z,61.28
2023-04-15T08:21:37.302Z,60.62
2023-04-15T08:24:07.113Z,60.83
2023-04-15T08:26:36.095Z,61.19
2023-04-15T08:29:04.816Z,60.54
2023-04-15T08:31:34.302Z,59.97
2023-04-15T08:34:03.174Z,59.90
2023-04-15T08:36:32.743Z,60.03
2023-04-15T08:39:05.347Z,60.15
2023-04-15T08:41:48.133Z,60.15
2023-04-15T08:44:18.391Z,60.30
2023-04-15T08:46:48.348Z,59.82
2023-04-15T08:49:19.544Z,59.66
2023-04-15T08:51:48.878Z,59.35
2023-04-15T08:54:17.536Z,58.94
2023-04-15T08:56:46.796Z,58.10
2023-04-15T08:59:16.783Z,57.39
2023-04-15T09:01:45.774Z,57.23
2023-04-15T09:04:14.717Z,56.71
2023-04-15T09:06:43.214Z,57.42
2023-04-15T09:09:14.707Z,56.60
2023-04-15T09:11:43.863Z,56.02
2023-04-15T09:14:13.890Z,55.86
2023-04-15T09:17:00.936Z,55.01
2023-04-15T09:19:30.260Z,55.76
2023-04-15T09:22:00.627Z,55.02
2023-04-15T09:24:38.768Z,55.41
2023-04-15T09:27:07.703Z,55.50
2023-04-15T09:29:37.398Z,54.79
2023-04-15T09:32:14.415Z,53.59
2023-04-15T09:34:43.634Z,53.70
2023-04-15T09:37:28.490Z,53.14
2023-04-15T09:40:00.790Z,52.89
2023-04-15T09:42:29.534Z,53.79
2023-04-15T09:45:09.548Z,52.77
2023-04-15T09:47:38.658Z,52.54
2023-04-15T09:50:08.408Z,51.82
2023-04-15T09:52:49.358Z,51.48
2023-04-15T09:55:19.168Z,51.12
2023-04-15T09:57:47.764Z,50.69
2023-04-15T10:00:16.769Z,51.37
2023-04-15T10:02:48.088Z,51.52
2023-04-15T10:05:18.154Z,50.55
2023-04-15T10:07:47.471Z,51.42
2023-04-15T10:10:16.412Z,51.36
2023-04-15T10:12:45.837Z,50.33
2023-04-15T10:15:17.755Z,50.56
2023-04-15T10:17:50.861Z,50.67
2023-04-15T10:20:20.158Z,51.30
2023-04-15T10:22:49.041Z,51.12
2023-04-15T10:25:18.642Z,51.26
2023-04-15T10:27:48.869Z,51.38
2023-04-15T10:30:19.518Z,50.77
2023-04-15T10:32:49.893Z,50.63
2023-04-15T10:35:21.914Z,50.09
2023-04-15T10:37:50.605Z,50.39
2023-04-15T10:40:28.472Z,50.51
2023-04-15T10:43:01.883Z,50.95
2023-04-15T10:45:38.066Z,50.38
2023-04-15T10:48:08.877Z,50.49
2023-04-15T10:50:38.196Z,50.88
2023-04-15T10:53:06.673Z,50.68
2023-04-15T10:55:36.183Z,50.30
2023-04-15T10:58:04.550Z,49.45
2023-04-15T11:00:35.413Z,50.04
2023-04-15T11:03:08.804Z,50.19
2023-04-15T11:05:43.621Z,50.10
2023-04-15T11:08:14.037Z,49.39
2023-04-15T11:10:43.578Z,48.74
2023-04-15T11:13:12.549Z,48.88
2023-04-15T11:15:45.970Z,48.76
2023-04-15T11:18:19.970Z,49.13
2023-04-15T11:21:00.632Z,49.57
2023-04-15T11:23:35.253Z,49.67
2023-04-15T11:26:09.560Z,48.86
2023-04-15T11:28:41.203Z,48.48
2023-04-15T11:31:12.477Z,48.53
2023-04-15T11:33:54.588Z,48.68
2023-04-15T11:36:28.020Z,48.82
2023-04-15T11:38:59.248Z,49.17
2023-04-15T11:41:28.292Z,49.44
2023-04-15T11:43:56.785Z,49.34
2023-04-15T11:46:32.209Z,47.49
2023-04-15T11:49:01.018Z,47.34
2023-04-15T11:51:34.479Z,47.85
2023-04-15T11:54:04.288Z,48.05
2023-04-15T11:56:33.254Z,47.41
2023-04-15T11:59:02.536Z,47.72
2023-04-15T12:01:47.307Z,47.25
2023-04-15T12:04:23.536Z,46.49
2023-04-15T12:06:54.085Z,46.32
2023-04-15T12:09:22.482Z,46.06
2023-04-15T12:11:53.204Z,45.36
2023-04-15T12:14:33.177Z,44.02
2023-04-15T12:17:07.046Z,43.80
2023-04-15T12:19:42.162Z,43.76
2023-04-15T12:22:17.720Z,43.95
2023-04-15T12:24:48.572Z,44.00
2023-04-15T12:27:17.890Z,43.74
2023-04-15T12:29:46.366Z,44.02
2023-04-15T12:32:16.479Z,44.41
2023-04-15T12:34:53.521Z,44.14
2023-04-15T12:37:22.345Z,44.41
2023-04-15T12:39:52.561Z,44.80
2023-04-15T12:42:21.151Z,44.66
2023-04-15T12:44:49.981Z,44.35
2023-04-15T12:47:18.661Z,44.62
2023-04-15T12:49:47.534Z,44.11
2023-04-15T12:52:17.017Z,43.78
2023-04-15T12:54:46.444Z,44.63
2023-04-15T12:57:14.986Z,45.01
2023-04-15T12:59:43.801Z,44.89
2023-04-15T13:02:14.008Z,44.65
2023-04-15T13:04:43.037Z,44.91
2023-04-15T13:07:13.774Z,44.79
2023-04-15T13:09:44.377Z,44.88
2023-04-15T13:12:14.729Z,44.81
2023-04-15T13:14:43.395Z,44.73
2023-04-15T13:17:11.981Z,44.77
2023-04-15T13:19:40.971Z,44.75
2023-04-15T13:22:10.240Z,44.90
2023-04-15T13:24:39.562Z,44.80
2023-04-15T13:27:08.775Z,45.27
2023-04-15T13:29:37.243Z,45.39
2023-04-15T13:32:06.338Z,45.18
2023-04-15T13:34:34.827Z,45.09
2023-04-15T13:37:08.277Z,46.11
2023-04-15T13:39:37.021Z,46.26
2023-04-15T13:42:06.040Z,46.11
2023-04-15T13:44:35.524Z,46.14
2023-04-15T13:47:04.223Z,45.54
2023-04-15T13:49:32.776Z,44.31
2023-04-15T13:52:01.380Z,45.19
2023-04-15T13:54:37.344Z,45.01
2023-04-15T13:57:07.232Z,43.75
2023-04-15T13:59:36.012Z,44.79
2023-04-15T14:02:04.829Z,45.24
2023-04-15T14:04:33.997Z,44.02
2023-04-15T14:07:05.050Z,44.52
2023-04-15T14:09:35.352Z,45.22
2023-04-15T14:12:04.784Z,45.37
2023-04-15T14:14:33.445Z,45.81
2023-04-15T14:17:03.787Z,46.09
2023-04-15T14:19:33.182Z,45.46
2023-04-15T14:22:01.657Z,45.23
2023-04-15T14:24:30.966Z,45.01
2023-04-15T14:26:59.980Z,44.71
2023-04-15T14:29:29.088Z,45.39
2023-04-15T14:32:11.582Z,44.61
2023-04-15T14:34:41.373Z,44.25
2023-04-15T14:37:10.171Z,45.14
2023-04-15T14:39:40.433Z,44.70
2023-04-15T14:42:09.081Z,44.28
2023-04-15T14:44:37.974Z,44.82
2023-04-15T14:47:06.761Z,44.06
2023-04-15T14:49:35.757Z,43.84
2023-04-15T14:52:05.055Z,43.74
2023-04-15T14:54:34.150Z,44.00
2023-04-15T14:57:02.927Z,43.84
2023-04-15T14:59:31.946Z,44.33
2023-04-15T15:02:01.537Z,44.09
2023-04-15T15:04:33.266Z,44.66
2023-04-15T15:07:02.620Z,44.64
2023-04-15T15:09:31.998Z,44.83
2023-04-15T15:12:02.535Z,44.68
2023-04-15T15:14:31.332Z,44.72
2023-04-15T15:17:00.961Z,45.92
2023-04-15T15:19:30.145Z,46.85
2023-04-15T15:21:58.864Z,45.91
2023-04-15T15:24:28.022Z,46.78
2023-04-15T15:26:57.843Z,47.00
2023-04-15T15:29:28.271Z,47.03
2023-04-15T15:31:57.054Z,46.59
2023-04-15T15:34:26.127Z,46.29
2023-04-15T15:36:55.729Z,46.61
2023-04-15T15:39:24.625Z,47.43
2023-04-15T15:41:55.864Z,47.62
2023-04-15T15:44:25.384Z,47.43
2023-04-15T15:46:55.433Z,47.45
2023-04-15T15:49:25.946Z,48.30
2023-04-15T15:52:20.923Z,48.60
2023-04-15T15:54:50.643Z,48.04
2023-04-15T15:57:20.423Z,46.87
2023-04-15T15:59:52.798Z,47.46
2023-04-15T16:02:59.862Z,47.50
2023-04-15T16:05:29.846Z,47.81
2023-04-15T16:08:04.247Z,47.72
2023-04-15T16:10:33.250Z,47.92
2023-04-15T16:13:03.173Z,48.34
2023-04-15T16:15:31.737Z,49.18
2023-04-15T16:18:03.246Z,49.07
2023-04-15T16:20:32.397Z,49.45
2023-04-15T16:23:08.860Z,50.51
2023-04-15T16:25:43.561Z,50.90
2023-04-15T16:28:26.438Z,49.56
2023-04-15T16:30:57.603Z,49.56
2023-04-15T16:33:27.258Z,49.92
2023-04-15T16:35:55.740Z,50.11
2023-04-15T16:38:24.522Z,50.25
2023-04-15T16:40:53.213Z,50.49
2023-04-15T16:43:21.789Z,51.06
2023-04-15T16:45:51.721Z,52.02
2023-04-15T16:48:21.305Z,53.14
2023-04-15T16:50:50.637Z,53.08
2023-04-15T16:53:19.313Z,53.54
2023-04-15T16:55:48.203Z,54.20
2023-04-15T16:58:17.170Z,54.77
2023-04-15T17:00:46.067Z,55.20
2023-04-15T17:03:15.228Z,56.03
2023-04-15T17:05:44.486Z,56.54
2023-04-15T17:08:13.892Z,56.95
2023-04-15T17:10:42.663Z,57.39
2023-04-15T17:13:11.350Z,57.57
2023-04-15T17:15:41.142Z,58.03
2023-04-15T17:18:11.097Z,59.11
2023-04-15T17:20:40.520Z,59.83
2023-04-15T17:23:09.577Z,59.90
2023-04-15T17:25:38.468Z,59.98
2023-04-15T17:28:07.910Z,60.04
2023-04-15T17:30:39.373Z,60.15
2023-04-15T17:33:59.152Z,60.14
2023-04-15T17:36:02.381Z,59.53
2023-04-15T17:38:33.958Z,58.57
2023-04-15T17:41:05.371Z,58.21
2023-04-15T17:43:34.531Z,57.65
2023-04-15T17:46:03.632Z,57.50
2023-04-15T17:48:34.460Z,57.37
2023-04-15T17:51:04.580Z,57.28
2023-04-15T17:53:38.163Z,57.33
2023-04-15T17:56:08.827Z,57.27
2023-04-15T17:58:40.058Z,56.93
2023-04-15T18:01:09.952Z,56.51
2023-04-15T18:03:40.364Z,56.38
2023-04-15T18:06:12.432Z,56.23
2023-04-15T18:08:42.378Z,56.57
2023-04-15T18:11:13.405Z,56.96
2023-04-15T18:13:43.673Z,57.20
2023-04-15T18:16:14.573Z,57.26
2023-04-15T18:18:44.468Z,57.71
2023-04-15T18:21:14.500Z,58.36
2023-04-15T18:23:44.404Z,59.20
2023-04-15T18:26:14.865Z,61.15
2023-04-15T18:28:44.137Z,62.19
2023-04-15T18:31:13.537Z,61.86
2023-04-15T18:33:42.436Z,62.07
2023-04-15T18:36:11.100Z,62.17
2023-04-15T18:38:40.306Z,62.20
2023-04-15T18:41:10.162Z,62.11
2023-04-15T18:43:39.120Z,61.73
2023-04-15T18:46:12.665Z,61.39
2023-04-15T18:48:41.617Z,61.20
2023-04-15T18:51:11.423Z,61.22
2023-04-15T18:53:41.056Z,61.20
2023-04-15T18:56:10.828Z,61.41
2023-04-15T18:59:09.911Z,61.52
2023-04-15T19:01:30.064Z,61.78
2023-04-15T19:03:59.758Z,61.92
2023-04-15T19:06:29.968Z,62.00
2023-04-15T19:09:01.617Z,62.17
2023-04-15T19:11:32.374Z,62.41
2023-04-15T19:14:02.091Z,62.77
2023-04-15T19:16:33.678Z,62.94
2023-04-15T19:19:03.242Z,63.04
2023-04-15T19:21:33.021Z,63.09
2023-04-15T19:24:10.621Z,63.18
2023-04-15T19:26:40.391Z,63.50
2023-04-15T19:29:10.286Z,64.11
2023-04-15T19:31:40.593Z,64.56
2023-04-15T19:34:13.574Z,64.49
2023-04-15T19:36:43.999Z,64.63
2023-04-15T19:39:13.943Z,64.89
2023-04-15T19:41:44.903Z,65.00
2023-04-15T19:44:14.334Z,65.12
2023-04-15T19:46:45.205Z,65.16
2023-04-15T19:49:14.191Z,65.26
2023-04-15T19:51:43.495Z,65.58
2023-04-15T19:54:13.099Z,65.93
2023-04-15T19:56:42.238Z,66.18
2023-04-15T19:59:13.029Z,66.50
2023-04-15T20:01:42.720Z,66.63
2023-04-15T20:04:12.043Z,66.72
2023-04-15T20:06:44.306Z,67.04
2023-04-15T20:09:15.448Z,67.05
2023-04-15T20:12:46.927Z,67.19
2023-04-15T20:14:42.001Z,67.40
2023-04-15T20:17:11.084Z,67.64
2023-04-15T20:19:40.192Z,67.59
2023-04-15T20:22:10.154Z,67.53
2023-04-15T20:24:42.364Z,67.51
2023-04-15T20:27:11.588Z,67.63
2023-04-15T20:29:48.941Z,68.00
2023-04-15T20:32:18.822Z,68.00
2023-04-15T20:34:51.441Z,68.05
2023-04-15T20:37:23.713Z,68.08
2023-04-15T20:40:01.823Z,68.28
2023-04-15T20:42:34.869Z,68.19
2023-04-15T20:45:07.597Z,68.33
2023-04-15T20:47:42.164Z,68.39
2023-04-15T20:50:16.437Z,68.56
2023-04-15T20:52:45.521Z,68.63
2023-04-15T20:55:14.614Z,68.59
2023-04-15T20:57:45.193Z,68.64
2023-04-15T21:00:14.789Z,68.74
2023-04-15T21:02:43.925Z,68.64
2023-04-15T21:05:13.072Z,68.73
2023-04-15T21:07:42.160Z,68.86
2023-04-15T21:10:12.524Z,69.22
2023-04-15T21:12:44.976Z,69.44
2023-04-15T21:15:13.966Z,69.73
2023-04-15T21:17:43.934Z,69.88
2023-04-15T21:20:14.837Z,69.86
2023-04-15T21:22:46.496Z,69.95
2023-04-15T21:25:18.838Z,69.82
2023-04-15T21:27:50.812Z,69.90
2023-04-15T21:30:24.076Z,69.99
2023-04-15T21:32:56.018Z,69.88
2023-04-15T21:35:27.495Z,69.83
2023-04-15T21:37:56.899Z,69.97
2023-04-15T21:40:26.018Z,70.13
2023-04-15T21:42:54.850Z,70.25
2023-04-15T21:45:23.580Z,70.30
2023-04-15T21:48:04.231Z,70.31
2023-04-15T21:50:44.292Z,70.36
2023-04-15T21:53:17.022Z,70.37
2023-04-15T21:55:57.227Z,70.56
2023-04-15T21:58:26.630Z,70.87
2023-04-15T22:01:00.468Z,71.15
2023-04-15T22:03:33.570Z,71.34
2023-04-15T22:06:05.865Z,71.58
2023-04-15T22:08:48.125Z,71.50
2023-04-15T22:11:31.031Z,71.60
2023-04-15T22:14:00.332Z,71.75
2023-04-15T22:16:29.015Z,71.71
2023-04-15T22:18:58.122Z,71.75
2023-04-15T22:21:27.233Z,71.81
2023-04-15T22:24:32.544Z,71.92
2023-04-15T22:26:52.429Z,72.05
2023-04-15T22:29:24.572Z,72.15
2023-04-15T22:31:53.689Z,72.02
2023-04-15T22:34:26.375Z,72.02
2023-04-15T22:36:55.459Z,72.03
2023-04-15T22:39:24.457Z,71.95
2023-04-15T22:41:57.229Z,72.02
2023-04-15T22:44:28.983Z,71.86
2023-04-15T22:47:10.896Z,72.01
2023-04-15T22:49:44.914Z,72.12
2023-04-15T22:52:29.511Z,72.15
2023-04-15T22:55:01.660Z,72.16
2023-04-15T22:57:30.625Z,72.27
2023-04-15T22:59:59.200Z,72.19
2023-04-15T23:02:28.174Z,72.10
2023-04-15T23:04:57.852Z,71.96
2023-04-15T23:07:26.900Z,71.97
2023-04-15T23:09:55.688Z,72.11
2023-04-15T23:12:24.481Z,72.38
2023-04-15T23:14:53.369Z,72.66
2023-04-15T23:17:25.377Z,72.73
2023-04-15T23:20:04.874Z,72.63
2023-04-15T23:22:38.998Z,72.54
2023-04-15T23:25:08.363Z,72.47
2023-04-15T23:27:37.326Z,72.23
2023-04-15T23:30:16.216Z,72.39
2023-04-15T23:32:45.029Z,72.41
2023-04-15T23:35:13.589Z,72.20
2023-04-15T23:37:45.553Z,72.28
2023-04-15T23:40:17.296Z,72.72
2023-04-15T23:43:06.274Z,72.85
2023-04-15T23:45:35.309Z,72.89
2023-04-15T23:48:03.814Z,72.89
2023-04-15T23:50:35.208Z,72.86
2023-04-15T23:53:07.462Z,72.80
2023-04-15T23:55:38.343Z,72.87
2023-04-15T23:58:12.408Z,72.85
